createdAt,value
2023-02-28T00:01:38.081Z,100973.91
2023-02-28T00:04:10.394Z,100987.97
2023-02-28T00:06:38.820Z,100976.34
2023-02-28T00:09:07.102Z,100977.19
2023-02-28T00:11:35.431Z,100976.53
2023-02-28T00:14:03.988Z,100979.31
2023-02-28T00:16:32.371Z,100981.09
2023-02-28T00:19:00.734Z,100976.84
2023-02-28T00:21:30.811Z,100971.91
2023-02-28T00:23:59.359Z,100981.56
2023-02-28T00:26:27.707Z,100985.31
2023-02-28T00:28:56.130Z,100968.78
2023-02-28T00:31:25.105Z,100967.31
2023-02-28T00:33:53.499Z,100973.50
2023-02-28T00:36:22.910Z,100975.47
2023-02-28T00:38:52.661Z,100970.25
2023-02-28T00:41:21.312Z,100977.13
2023-02-28T00:43:49.667Z,100981.84
2023-02-28T00:46:18.133Z,100975.94
2023-02-28T00:48:46.518Z,100965.63
2023-02-28T00:51:14.995Z,100973.66
2023-02-28T00:53:43.520Z,100982.78
2023-02-28T00:56:13.240Z,100971.66
2023-02-28T00:58:41.624Z,100978.81
2023-02-28T01:01:10.057Z,100977.19
2023-02-28T01:03:40.411Z,100976.53
2023-02-28T01:06:09.277Z,100977.66
2023-02-28T01:08:37.634Z,100975.34
2023-02-28T01:11:19.058Z,100976.66
2023-02-28T01:13:48.605Z,100974.03
2023-02-28T01:16:17.046Z,100975.16
2023-02-28T01:18:45.888Z,100967.47
2023-02-28T01:21:17.998Z,100962.06
2023-02-28T01:23:47.522Z,100977.94
2023-02-28T01:26:20.005Z,100965.97
2023-02-28T01:28:50.195Z,100968.44
2023-02-28T01:31:19.739Z,100965.16
2023-02-28T01:34:11.386Z,100969.41
2023-02-28T01:36:39.737Z,100962.56
2023-02-28T01:39:08.216Z,100969.56
2023-02-28T01:41:37.999Z,100985.41
2023-02-28T01:44:09.041Z,100969.06
2023-02-28T01:46:38.454Z,100960.53
2023-02-28T01:49:11.043Z,100967.88
2023-02-28T01:51:46.680Z,100956.91
2023-02-28T01:54:19.311Z,100970.78
2023-02-28T01:56:54.942Z,100965.56
2023-02-28T01:59:29.237Z,100956.91
2023-02-28T02:01:57.922Z,100958.56
2023-02-28T02:04:32.777Z,100958.72
2023-02-28T02:07:01.466Z,100941.38
2023-02-28T02:09:29.804Z,100948.25
2023-02-28T02:12:01.437Z,100951.97
2023-02-28T02:15:00.555Z,100948.34
2023-02-28T02:17:38.132Z,100935.59
2023-02-28T02:20:57.965Z,100934.13
2023-02-28T02:23:52.001Z,100940.47
2023-02-28T02:26:54.405Z,100936.34
2023-02-28T02:29:49.047Z,100943.81
2023-02-28T02:32:36.400Z,100948.22
2023-02-28T02:35:16.954Z,100952.63
2023-02-28T02:37:52.958Z,100956.22
2023-02-28T02:40:24.691Z,100945.91
2023-02-28T02:42:58.663Z,100932.31
2023-02-28T02:45:36.314Z,100937.41
2023-02-28T02:48:09.429Z,100945.09
2023-02-28T02:50:43.916Z,100923.38
2023-02-28T02:53:14.905Z,100952.13
2023-02-28T02:55:48.280Z,100946.88
2023-02-28T02:58:21.336Z,100939.06
2023-02-28T03:01:02.246Z,100940.03
2023-02-28T03:03:33.294Z,100927.09
2023-02-28T03:06:04.945Z,100945.91
2023-02-28T03:08:39.992Z,100950.16
2023-02-28T03:11:15.902Z,100936.13
2023-02-28T03:14:19.909Z,100945.91
2023-02-28T03:17:25.992Z,100946.72
2023-02-28T03:20:08.982Z,100937.25
2023-02-28T03:23:05.579Z,100942.66
2023-02-28T03:25:40.263Z,100943.28
2023-02-28T03:28:20.312Z,100939.69
2023-02-28T03:30:54.758Z,100931.03
2023-02-28T03:33:28.258Z,100931.22
2023-02-28T03:36:01.341Z,100939.19
2023-02-28T03:38:36.578Z,100943.59
2023-02-28T03:41:12.646Z,100940.97
2023-02-28T03:43:45.746Z,100934.94
2023-02-28T03:46:22.164Z,100939.06
2023-02-28T03:48:57.002Z,100938.53
2023-02-28T03:51:28.796Z,100940.34
2023-02-28T03:54:02.128Z,100937.56
2023-02-28T03:56:36.914Z,100942.78
2023-02-28T03:59:11.137Z,100935.09
2023-02-28T04:01:43.319Z,100935.09
2023-02-28T04:04:13.308Z,100940.34
2023-02-28T04:06:42.776Z,100935.25
2023-02-28T04:09:15.094Z,100936.53
2023-02-28T04:11:47.255Z,100942.56
2023-02-28T04:14:16.116Z,100939.31
2023-02-28T04:16:55.495Z,100938.63
2023-02-28T04:19:23.912Z,100940.41
2023-02-28T04:21:54.284Z,100942.34
2023-02-28T04:24:25.807Z,100943.50
2023-02-28T04:26:57.140Z,100938.41
2023-02-28T04:29:28.879Z,100933.47
2023-02-28T04:32:00.033Z,100944.78
2023-02-28T04:34:29.247Z,100945.72
2023-02-28T04:37:14.504Z,100937.22
2023-02-28T04:39:44.763Z,100945.38
2023-02-28T04:42:14.312Z,100937.69
2023-02-28T04:44:42.639Z,100941.25
2023-02-28T04:47:11.073Z,100942.41
2023-02-28T04:49:39.415Z,100935.50
2023-02-28T04:52:08.648Z,100935.69
2023-02-28T04:54:37.110Z,100930.59
2023-02-28T04:57:07.018Z,100932.38
2023-02-28T04:59:35.522Z,100943.00
2023-02-28T05:02:07.742Z,100938.88
2023-02-28T05:04:36.780Z,100940.00
2023-02-28T05:07:05.772Z,100945.38
2023-02-28T05:09:34.991Z,100941.28
2023-02-28T05:12:03.492Z,100945.03
2023-02-28T05:14:33.324Z,100952.16
2023-02-28T05:17:01.631Z,100947.41
2023-02-28T05:19:30.277Z,100952.41
2023-02-28T05:21:58.696Z,100960.38
2023-02-28T05:24:27.126Z,100944.84
2023-02-28T05:26:56.752Z,100951.88
2023-02-28T05:29:25.235Z,100956.28
2023-02-28T05:31:55.028Z,100960.00
2023-02-28T05:34:23.406Z,100952.16
2023-02-28T05:36:51.720Z,100949.56
2023-02-28T05:39:20.009Z,100958.19
2023-02-28T05:41:48.321Z,100958.19
2023-02-28T05:44:17.883Z,100957.38
2023-02-28T05:46:46.265Z,100962.59
2023-02-28T05:49:16.014Z,100969.63
2023-02-28T05:51:44.350Z,100950.66
2023-02-28T05:54:13.948Z,100958.19
2023-02-28T05:56:45.068Z,100964.25
2023-02-28T05:59:13.794Z,101003.28
2023-02-28T06:01:48.932Z,100967.25
2023-02-28T06:04:31.382Z,100971.34
2023-02-28T06:07:00.460Z,100975.44
2023-02-28T06:09:28.831Z,100972.00
2023-02-28T06:11:57.197Z,100969.41
2023-02-28T06:14:25.588Z,100970.22
2023-02-28T06:16:54.233Z,100975.44
2023-02-28T06:19:26.556Z,100977.94
2023-02-28T06:21:56.290Z,100977.06
2023-02-28T06:24:29.022Z,100978.06
2023-02-28T06:26:58.609Z,100974.63
2023-02-28T06:29:27.633Z,100982.63
2023-02-28T06:31:56.386Z,100974.09
2023-02-28T06:34:26.167Z,100990.59
2023-02-28T06:36:55.050Z,100988.78
2023-02-28T06:39:23.365Z,100986.19
2023-02-28T06:41:55.763Z,100990.44
2023-02-28T06:44:25.765Z,100986.88
2023-02-28T06:46:54.165Z,100981.63
2023-02-28T06:49:22.497Z,100988.38
2023-02-28T06:51:52.113Z,100984.78
2023-02-28T06:54:20.410Z,100988.03
2023-02-28T06:56:48.858Z,100987.22
2023-02-28T06:59:17.235Z,100990.53
2023-02-28T07:01:46.295Z,100996.84
2023-02-28T07:04:15.211Z,101005.50
2023-02-28T07:06:43.498Z,100996.84
2023-02-28T07:09:14.828Z,100995.88
2023-02-28T07:11:44.011Z,101007.00
2023-02-28T07:14:12.317Z,101004.41
2023-02-28T07:16:40.635Z,101005.22
2023-02-28T07:19:08.949Z,101007.81
2023-02-28T07:21:37.247Z,101006.03
2023-02-28T07:24:06.228Z,101010.59
2023-02-28T07:26:36.155Z,101014.31
2023-02-28T07:29:04.491Z,101004.03
2023-02-28T07:31:33.016Z,101013.63
2023-02-28T07:34:01.459Z,101019.81
2023-02-28T07:36:29.814Z,101016.56
2023-02-28T07:38:58.112Z,101014.91
2023-02-28T07:41:28.975Z,101005.59
2023-02-28T07:44:00.626Z,101008.50
2023-02-28T07:46:30.914Z,101018.13
2023-02-28T07:49:00.528Z,101012.91
2023-02-28T07:51:29.347Z,101019.06
2023-02-28T07:53:58.210Z,101017.44
2023-02-28T07:56:26.757Z,101018.41
2023-02-28T07:58:55.146Z,101014.97
2023-02-28T08:01:24.897Z,101026.22
2023-02-28T08:03:53.291Z,101014.97
2023-02-28T08:06:25.636Z,101018.69
2023-02-28T08:08:57.033Z,101036.00
2023-02-28T08:11:25.354Z,101036.00
2023-02-28T08:13:53.622Z,101022.13
2023-02-28T08:16:23.498Z,101023.75
2023-02-28T08:18:54.853Z,101035.03
2023-02-28T08:21:23.682Z,101027.06
2023-02-28T08:23:53.479Z,101027.75
2023-02-28T08:26:22.426Z,101016.03
2023-02-28T08:28:51.341Z,101020.97
2023-02-28T08:31:20.226Z,101015.41
2023-02-28T08:33:49.716Z,101012.53
2023-02-28T08:36:19.946Z,101007.97
2023-02-28T08:38:48.268Z,101014.69
2023-02-28T08:41:16.667Z,101001.50
2023-02-28T08:43:45.101Z,101004.63
2023-02-28T08:46:15.592Z,101005.97
2023-02-28T08:48:44.832Z,101011.56
2023-02-28T08:51:17.294Z,101001.78
2023-02-28T08:53:47.541Z,101012.06
2023-02-28T08:56:18.427Z,101009.34
2023-02-28T08:58:48.654Z,101009.69
2023-02-28T09:01:19.667Z,101002.25
2023-02-28T09:03:49.558Z,100998.50
2023-02-28T09:06:21.403Z,100995.44
2023-02-28T09:08:51.337Z,101001.84
2023-02-28T09:11:20.450Z,101004.84
2023-02-28T09:13:48.878Z,101004.38
2023-02-28T09:16:19.137Z,101001.47
2023-02-28T09:18:47.618Z,101007.09
2023-02-28T09:21:18.925Z,101008.59
2023-02-28T09:23:51.824Z,101005.66
2023-02-28T09:26:23.238Z,101007.13
2023-02-28T09:28:51.836Z,101007.81
2023-02-28T09:31:24.863Z,101011.75
2023-02-28T09:33:55.385Z,101014.72
2023-02-28T09:36:34.518Z,101010.00
2023-02-28T09:39:11.490Z,101014.81
2023-02-28T09:41:51.041Z,101010.91
2023-02-28T09:44:32.684Z,101009.63
2023-02-28T09:47:09.403Z,100998.03
2023-02-28T09:49:43.316Z,100998.56
2023-02-28T09:52:17.188Z,100996.28
2023-02-28T09:54:47.286Z,100997.78
2023-02-28T09:57:26.370Z,100991.25
2023-02-28T10:00:08.994Z,100999.09
2023-02-28T10:02:54.801Z,101003.53
2023-02-28T10:05:27.477Z,100992.06
2023-02-28T10:08:09.152Z,100991.78
2023-02-28T10:10:43.881Z,100988.03
2023-02-28T10:13:24.150Z,101003.25
2023-02-28T10:15:58.434Z,100997.72
2023-02-28T10:18:31.311Z,101002.47
2023-02-28T10:21:01.756Z,101001.34
2023-02-28T10:23:34.806Z,100994.81
2023-02-28T10:26:16.965Z,100999.56
2023-02-28T10:28:45.774Z,101003.50
2023-02-28T10:31:20.474Z,101005.00
2023-02-28T10:33:49.826Z,100995.19
2023-02-28T10:36:22.868Z,101009.59
2023-02-28T10:38:52.282Z,101010.25
2023-02-28T10:41:35.627Z,101008.47
2023-02-28T10:44:20.305Z,100996.06
2023-02-28T10:46:48.836Z,100997.50
2023-02-28T10:49:22.966Z,101004.41
2023-02-28T10:51:57.880Z,100996.25
2023-02-28T10:54:31.789Z,101003.44
2023-02-28T10:57:20.134Z,101006.56
2023-02-28T10:59:52.824Z,100998.38
2023-02-28T11:02:39.177Z,100996.28
2023-02-28T11:05:31.707Z,100993.03
2023-02-28T11:08:08.990Z,100998.09
2023-02-28T11:10:37.948Z,100993.34
2023-02-28T11:13:08.033Z,100989.44
2023-02-28T11:15:37.847Z,100990.91
2023-02-28T11:18:25.547Z,100997.47
2023-02-28T11:20:56.918Z,100987.50
2023-02-28T11:23:29.296Z,100991.41
2023-02-28T11:26:01.415Z,100989.28
2023-02-28T11:28:34.703Z,100981.63
2023-02-28T11:31:17.947Z,100983.75
2023-02-28T11:33:51.214Z,100979.16
2023-02-28T11:36:25.728Z,100980.28
2023-02-28T11:38:56.988Z,100970.97
2023-02-28T11:41:51.199Z,100971.47
2023-02-28T11:44:41.804Z,100966.91
2023-02-28T11:47:17.890Z,100966.53
2023-02-28T11:49:56.680Z,100960.84
2023-02-28T11:52:40.588Z,100962.13
2023-02-28T11:55:20.398Z,100955.91
2023-02-28T11:58:19.516Z,100959.19
2023-02-28T12:01:04.583Z,100953.59
2023-02-28T12:03:47.272Z,100942.63
2023-02-28T12:06:24.614Z,100952.44
2023-02-28T12:09:14.628Z,100950.97
2023-02-28T12:11:56.715Z,100951.78
2023-02-28T12:15:01.640Z,100947.19
2023-02-28T12:17:53.717Z,100951.44
2023-02-28T12:20:34.530Z,100947.69
2023-02-28T12:23:29.266Z,100948.16
2023-02-28T12:26:11.223Z,100947.47
2023-02-28T12:28:45.233Z,100951.41
2023-02-28T12:31:20.746Z,100933.03
2023-02-28T12:33:55.158Z,100937.81
2023-02-28T12:36:25.021Z,100935.50
2023-02-28T12:39:01.224Z,100940.59
2023-02-28T12:41:37.157Z,100941.22
2023-02-28T12:44:12.524Z,100952.53
2023-02-28T12:46:46.866Z,100949.09
2023-02-28T12:49:20.102Z,100942.72
2023-02-28T12:51:49.385Z,100945.16
2023-02-28T12:54:25.631Z,100953.50
2023-02-28T12:57:05.921Z,100937.94
2023-02-28T12:59:42.473Z,100943.19
2023-02-28T13:03:09.729Z,100936.47
2023-02-28T13:06:10.438Z,100935.66
2023-02-28T13:09:02.063Z,100928.13
2023-02-28T13:11:33.869Z,100937.63
2023-02-28T13:14:05.273Z,100947.16
2023-02-28T13:17:00.610Z,100942.72
2023-02-28T13:19:32.142Z,100943.72
2023-02-28T13:22:04.464Z,100946.97
2023-02-28T13:24:54.393Z,100950.09
2023-02-28T13:27:41.529Z,100951.91
2023-02-28T13:31:05.220Z,100944.19
2023-02-28T13:33:34.595Z,100940.75
2023-02-28T13:36:28.098Z,100936.97
2023-02-28T13:39:01.577Z,100946.16
2023-02-28T13:41:49.973Z,100952.88
2023-02-28T13:44:24.127Z,100955.97
2023-02-28T13:47:35.850Z,100954.31
2023-02-28T13:50:29.149Z,100933.50
2023-02-28T13:53:39.073Z,100939.75
2023-02-28T13:56:27.534Z,100943.81
2023-02-28T13:59:02.075Z,100932.50
2023-02-28T14:01:44.493Z,100943.34
2023-02-28T14:04:48.481Z,100940.34
2023-02-28T14:07:24.708Z,100930.34
2023-02-28T14:10:06.207Z,100932.63
2023-02-28T14:13:17.073Z,100947.56
2023-02-28T14:15:59.585Z,100945.13
2023-02-28T14:18:32.657Z,100956.44
2023-02-28T14:21:13.369Z,100959.88
2023-02-28T14:24:11.554Z,100949.53
2023-02-28T14:27:00.954Z,100952.00
2023-02-28T14:30:13.609Z,100958.06
2023-02-28T14:32:51.814Z,100953.13
2023-02-28T14:35:42.303Z,100948.56
2023-02-28T14:38:19.862Z,100947.75
2023-02-28T14:40:50.000Z,100948.56
2023-02-28T14:43:25.430Z,100942.50
2023-02-28T14:46:00.499Z,100941.69
2023-02-28T14:48:29.687Z,100942.63
2023-02-28T14:51:01.125Z,100950.38
2023-02-28T14:53:37.109Z,100950.50
2023-02-28T14:56:06.382Z,100935.56
2023-02-28T14:58:36.050Z,100947.75
2023-02-28T15:01:06.676Z,100945.75
2023-02-28T15:03:38.098Z,100934.09
2023-02-28T15:06:13.421Z,100939.16
2023-02-28T15:08:41.953Z,100923.06
2023-02-28T15:11:15.517Z,100923.88
2023-02-28T15:13:49.513Z,100923.06
2023-02-28T15:16:23.155Z,100920.44
2023-02-28T15:19:00.254Z,100923.72
2023-02-28T15:21:33.203Z,100920.78
2023-02-28T15:24:07.746Z,100922.41
2023-02-28T15:26:40.718Z,100930.91
2023-02-28T15:29:14.160Z,100929.28
2023-02-28T15:31:56.840Z,100930.28
2023-02-28T15:34:43.508Z,100934.53
2023-02-28T15:37:41.572Z,100926.66
2023-02-28T15:40:25.096Z,100927.66
2023-02-28T15:43:10.187Z,100930.47
2023-02-28T15:45:42.522Z,100927.19
2023-02-28T15:48:24.479Z,100929.97
2023-02-28T15:50:55.858Z,100923.06
2023-02-28T15:53:27.401Z,100932.25
2023-02-28T15:56:04.142Z,100919.28
2023-02-28T15:58:33.132Z,100922.41
2023-02-28T16:01:19.831Z,100926.03
2023-02-28T16:03:53.141Z,100922.72
2023-02-28T16:06:40.664Z,100930.63
2023-02-28T16:09:14.293Z,100930.63
2023-02-28T16:11:46.852Z,100933.91
2023-02-28T16:14:19.458Z,100939.16
2023-02-28T16:16:51.510Z,100934.72
2023-02-28T16:19:21.744Z,100939.97
2023-02-28T16:21:50.575Z,100937.97
2023-02-28T16:24:18.873Z,100935.53
2023-02-28T16:26:50.439Z,100936.16
2023-02-28T16:29:26.227Z,100933.72
2023-02-28T16:31:55.543Z,100949.47
2023-02-28T16:34:27.579Z,100939.16
2023-02-28T16:36:55.893Z,100940.78
2023-02-28T16:39:24.235Z,100946.84
2023-02-28T16:41:53.498Z,100946.66
2023-02-28T16:44:30.162Z,100951.91
2023-02-28T16:46:58.892Z,100942.25
2023-02-28T16:49:28.789Z,100949.13
2023-02-28T16:51:57.157Z,100953.56
2023-02-28T16:54:25.688Z,100955.38
2023-02-28T16:56:54.272Z,100953.72
2023-02-28T16:59:28.973Z,100946.03
2023-02-28T17:01:58.720Z,100957.16
2023-02-28T17:04:29.208Z,100958.81
2023-02-28T17:06:57.549Z,100954.19
2023-02-28T17:09:36.751Z,100945.69
2023-02-28T17:12:10.173Z,100963.25
2023-02-28T17:14:38.694Z,100977.84
2023-02-28T17:17:07.458Z,100974.56
2023-02-28T17:19:39.269Z,100976.00
2023-02-28T17:22:07.742Z,100983.09
2023-02-28T17:24:36.076Z,100986.69
2023-02-28T17:27:04.874Z,100986.69
2023-02-28T17:29:33.275Z,101000.84
2023-02-28T17:32:12.215Z,100995.59
2023-02-28T17:34:47.741Z,100987.03
2023-02-28T17:37:16.104Z,101000.97
2023-02-28T17:39:44.521Z,100994.75
2023-02-28T17:42:13.190Z,100998.34
2023-02-28T17:44:41.514Z,100995.72
2023-02-28T17:47:13.939Z,101005.41
2023-02-28T17:49:42.660Z,101002.78
2023-02-28T17:52:12.391Z,100999.34
2023-02-28T17:54:40.771Z,101006.41
2023-02-28T17:57:15.237Z,101006.75
2023-02-28T17:59:43.562Z,101010.38
2023-02-28T18:02:15.078Z,101008.91
2023-02-28T18:04:43.374Z,101007.25
2023-02-28T18:07:14.246Z,101008.41
2023-02-28T18:09:42.534Z,101009.41
2023-02-28T18:12:10.883Z,101004.50
2023-02-28T18:14:39.493Z,101003.81
2023-02-28T18:17:07.911Z,101010.06
2023-02-28T18:19:36.418Z,101000.72
2023-02-28T18:22:04.730Z,101009.59
2023-02-28T18:24:34.413Z,101017.78
2023-02-28T18:27:02.820Z,101016.34
2023-02-28T18:29:32.605Z,101005.19
2023-02-28T18:32:02.357Z,101010.59
2023-02-28T18:34:31.689Z,101010.94
2023-02-28T18:37:00.140Z,101006.84
2023-02-28T18:39:28.447Z,101010.47
2023-02-28T18:41:58.137Z,101017.84
2023-02-28T18:44:26.455Z,101020.63
2023-02-28T18:46:54.872Z,101014.06
2023-02-28T18:49:23.758Z,101007.16
2023-02-28T18:51:56.164Z,101010.09
2023-02-28T18:54:26.429Z,101014.03
2023-02-28T18:56:56.367Z,101012.56
2023-02-28T18:59:27.580Z,101020.63
2023-02-28T19:01:56.286Z,101008.97
2023-02-28T19:04:25.314Z,101015.22
2023-02-28T19:06:53.806Z,101018.16
2023-02-28T19:09:22.119Z,101013.09
2023-02-28T19:11:50.568Z,101028.97
2023-02-28T19:14:20.325Z,101018.00
2023-02-28T19:16:50.845Z,101013.09
2023-02-28T19:19:19.544Z,101017.69
2023-02-28T19:21:47.836Z,101015.38
2023-02-28T19:24:16.138Z,101020.63
2023-02-28T19:26:44.475Z,101014.06
2023-02-28T19:29:12.801Z,101017.19
2023-02-28T19:31:41.298Z,101021.75
2023-02-28T19:34:11.051Z,101020.28
2023-02-28T19:36:39.386Z,101027.69
2023-02-28T19:39:07.925Z,101026.19
2023-02-28T19:41:36.253Z,101035.06
2023-02-28T19:44:04.660Z,101031.75
2023-02-28T19:46:33.051Z,101034.69
2023-02-28T19:49:01.394Z,101038.44
2023-02-28T19:51:31.258Z,101027.47
2023-02-28T19:53:59.679Z,101029.47
2023-02-28T19:56:28.333Z,101031.41
2023-02-28T19:58:59.363Z,101028.16
2023-02-28T20:01:27.780Z,101026.66
2023-02-28T20:03:56.150Z,101020.75
2023-02-28T20:06:24.533Z,101017.47
2023-02-28T20:08:56.048Z,101014.19
2023-02-28T20:11:24.874Z,101015.34
2023-02-28T20:13:55.101Z,101014.84
2023-02-28T20:16:23.656Z,101028.91
2023-02-28T20:18:52.590Z,101018.78
2023-02-28T20:21:21.120Z,101023.34
2023-02-28T20:23:49.695Z,101028.75
2023-02-28T20:26:20.189Z,101029.06
2023-02-28T20:28:49.581Z,101020.53
2023-02-28T20:31:22.217Z,101030.38
2023-02-28T20:33:51.995Z,101019.22
2023-02-28T20:36:21.412Z,101023.78
2023-02-28T20:38:50.712Z,101022.34
2023-02-28T20:41:20.952Z,101034.63
2023-02-28T20:43:55.707Z,101025.28
2023-02-28T20:46:24.091Z,101014.94
2023-02-28T20:48:53.000Z,101011.84
2023-02-28T20:51:22.117Z,101013.63
2023-02-28T20:53:50.863Z,101007.72
2023-02-28T20:56:23.728Z,101012.97
2023-02-28T20:58:55.907Z,101005.44
2023-02-28T21:01:26.856Z,101014.28
2023-02-28T21:03:57.590Z,101012.78
2023-02-28T21:06:28.580Z,101018.19
2023-02-28T21:08:58.313Z,101006.38
2023-02-28T21:11:31.012Z,101010.78
2023-02-28T21:14:01.409Z,101013.59
2023-02-28T21:16:30.750Z,101018.00
2023-02-28T21:19:03.914Z,101015.69
2023-02-28T21:21:34.160Z,101017.50
2023-02-28T21:24:02.695Z,101023.84
2023-02-28T21:26:33.171Z,101015.31
2023-02-28T21:29:03.782Z,101022.69
2023-02-28T21:31:34.333Z,101021.84
2023-02-28T21:34:05.245Z,101016.97
2023-02-28T21:36:37.798Z,101016.28
2023-02-28T21:39:09.873Z,101022.50
2023-02-28T21:41:39.566Z,101018.22
2023-02-28T21:44:07.912Z,101020.19
2023-02-28T21:46:36.374Z,101015.09
2023-02-28T21:49:04.814Z,101022.44
2023-02-28T21:51:33.508Z,101016.41
2023-02-28T21:54:02.591Z,101000.06
2023-02-28T21:56:33.613Z,101021.13
2023-02-28T21:59:04.632Z,101019.50
2023-02-28T22:01:35.632Z,101022.28
2023-02-28T22:04:07.148Z,101020.63
2023-02-28T22:06:39.388Z,101025.34
2023-02-28T22:09:10.867Z,101024.69
2023-02-28T22:11:40.822Z,101019.59
2023-02-28T22:14:12.559Z,101018.94
2023-02-28T22:16:51.334Z,101013.03
2023-02-28T22:19:21.677Z,101011.41
2023-02-28T22:21:50.432Z,101003.72
2023-02-28T22:24:20.810Z,101008.09
2023-02-28T22:26:50.466Z,101011.06
2023-02-28T22:29:20.510Z,101008.44
2023-02-28T22:31:49.085Z,101007.78
2023-02-28T22:34:17.650Z,101008.75
2023-02-28T22:36:46.225Z,101012.31
2023-02-28T22:39:14.575Z,101015.09
2023-02-28T22:41:42.969Z,101008.25
2023-02-28T22:44:12.994Z,101010.19
2023-02-28T22:46:42.779Z,101008.69
2023-02-28T22:49:11.159Z,101014.09
2023-02-28T22:51:39.517Z,101022.91
2023-02-28T22:54:07.811Z,101017.81
2023-02-28T22:56:36.166Z,101020.59
2023-02-28T22:59:05.136Z,101026.13
2023-02-28T23:01:35.537Z,101019.28
2023-02-28T23:04:05.680Z,101015.97
2023-02-28T23:06:37.831Z,101028.22
2023-02-28T23:09:09.816Z,101025.78
2023-02-28T23:11:41.492Z,101019.06
2023-02-28T23:14:12.775Z,101020.03
2023-02-28T23:16:46.141Z,101023.59
2023-02-28T23:19:19.010Z,101023.78
2023-02-28T23:21:50.977Z,101018.72
2023-02-28T23:24:23.783Z,101020.66
2023-02-28T23:26:55.711Z,101022.44
2023-02-28T23:29:26.110Z,101029.59
2023-02-28T23:31:55.043Z,101033.03
2023-02-28T23:34:28.357Z,101032.38
2023-02-28T23:36:58.606Z,101029.09
2023-02-28T23:39:28.965Z,101032.69
2023-02-28T23:41:57.858Z,101035.47
2023-02-28T23:44:26.377Z,101034.78
2023-02-28T23:46:55.682Z,101031.34
2023-02-28T23:49:25.765Z,101039.19
2023-02-28T23:51:54.934Z,101030.66
2023-02-28T23:54:23.363Z,101033.28
2023-02-28T23:56:51.692Z,101028.22
2023-02-28T23:59:20.390Z,101025.72
